Terminal Aerodrome Forecast
Issued by NWS North Platte, NE

Home | Current Version | Previous Version | Graphics & Text | Print | Product List | Glossary Off
Versions: 1 2 3 4 5 6 7 8 9 10 11 12 13 14 15 16 17 18 19 20

000
FTUS43 KLBF 211700
TAFVTN
TAF
KVTN 211740Z 2118/2218 19010KT P6SM SKC
     FM212000 20013G20KT P6SM BKN150
     FM220000 23009KT P6SM BKN090
     FM220600 29012KT P6SM -RASN BKN040 OVC080
     FM221200 30014G25KT 5SM -SN BKN030 OVC100
     FM221500 32018G28KT 3SM -SN OVC020=

USA.gov is the U.S. government's official web portal to all federal, state and local government web resources and services.